sensor_id;sensor_type;location;lat;lon;timestamp;P1;P2;P0
55485;PMS5003;71262;-25.924;28.194;2023-07-31T00:01:14;2;2;
55485;PMS5003;71262;-25.924;28.194;2023-07-31T00:03:40;2;2;
55485;PMS5003;71262;-25.924;28.194;2023-07-31T00:06:05;1;1;
55485;PMS5003;71262;-25.924;28.194;2023-07-31T00:08:30;2;2;
55485;PMS5003;71262;-25.924;28.194;2023-07-31T00:10:55;2;2;
55485;PMS5003;71262;-25.924;28.194;2023-07-31T00:13:20;1;1;
55485;PMS5003;71262;-25.924;28.194;2023-07-31T00:15:46;1;1;
55485;PMS5003;71262;-25.924;28.194;2023-07-31T00:18:11;3;3;
55485;PMS5003;71262;-25.924;28.194;2023-07-31T00:20:36;3;3;
55485;PMS5003;71262;-25.924;28.194;2023-07-31T00:23:01;7;7;
55485;PMS5003;71262;-25.924;28.194;2023-07-31T00:25:27;4;4;
55485;PMS5003;71262;-25.924;28.194;2023-07-31T00:27:52;3;2;
55485;PMS5003;71262;-25.924;28.194;2023-07-31T00:30:17;1;1;
55485;PMS5003;71262;-25.924;28.194;2023-07-31T00:32:42;8;7;
55485;PMS5003;71262;-25.924;28.194;2023-07-31T00:35:07;2;2;
55485;PMS5003;71262;-25.924;28.194;2023-07-31T00:37:32;2;2;
55485;PMS5003;71262;-25.924;28.194;2023-07-31T00:39:58;3;2;
55485;PMS5003;71262;-25.924;28.194;2023-07-31T00:42:23;3;3;
55485;PMS5003;71262;-25.924;28.194;2023-07-31T00:44:48;2;2;
55485;PMS5003;71262;-25.924;28.194;2023-07-31T00:47:13;8;7;
55485;PMS5003;71262;-25.924;28.194;2023-07-31T00:49:38;7;7;
55485;PMS5003;71262;-25.924;28.194;2023-07-31T00:52:04;2;2;
55485;PMS5003;71262;-25.924;28.194;2023-07-31T00:54:29;1;1;
55485;PMS5003;71262;-25.924;28.194;2023-07-31T00:56:54;2;2;
55485;PMS5003;71262;-25.924;28.194;2023-07-31T00:59:19;3;3;
55485;PMS5003;71262;-25.924;28.194;2023-07-31T01:01:45;5;4;
55485;PMS5003;71262;-25.924;28.194;2023-07-31T01:04:10;1;1;
55485;PMS5003;71262;-25.924;28.194;2023-07-31T01:06:36;2;2;
55485;PMS5003;71262;-25.924;28.194;2023-07-31T01:09:01;1;1;
55485;PMS5003;71262;-25.924;28.194;2023-07-31T01:11:27;2;2;
55485;PMS5003;71262;-25.924;28.194;2023-07-31T01:13:51;2;2;
55485;PMS5003;71262;-25.924;28.194;2023-07-31T01:16:16;7;6;
55485;PMS5003;71262;-25.924;28.194;2023-07-31T01:18:41;7;7;
55485;PMS5003;71262;-25.924;28.194;2023-07-31T01:21:21;4;3;
55485;PMS5003;71262;-25.924;28.194;2023-07-31T01:26:00;1;0;
55485;PMS5003;71262;-25.924;28.194;2023-07-31T01:28:23;3;2;
55485;PMS5003;71262;-25.924;28.194;2023-07-31T01:30:48;1;1;
55485;PMS5003;71262;-25.924;28.194;2023-07-31T01:33:12;3;2;
55485;PMS5003;71262;-25.924;28.194;2023-07-31T01:35:38;1;1;
55485;PMS5003;71262;-25.924;28.194;2023-07-31T01:38:03;2;2;
55485;PMS5003;71262;-25.924;28.194;2023-07-31T01:40:28;3;2;
55485;PMS5003;71262;-25.924;28.194;2023-07-31T01:42:53;2;2;
55485;PMS5003;71262;-25.924;28.194;2023-07-31T01:45:18;2;2;
55485;PMS5003;71262;-25.924;28.194;2023-07-31T01:47:43;3;2;
55485;PMS5003;71262;-25.924;28.194;2023-07-31T01:50:09;2;1;
55485;PMS5003;71262;-25.924;28.194;2023-07-31T01:52:34;1;1;
55485;PMS5003;71262;-25.924;28.194;2023-07-31T01:54:59;2;2;
55485;PMS5003;71262;-25.924;28.194;2023-07-31T01:57:24;3;3;
55485;PMS5003;71262;-25.924;28.194;2023-07-31T01:59:49;2;2;
55485;PMS5003;71262;-25.924;28.194;2023-07-31T02:02:15;1;1;
55485;PMS5003;71262;-25.924;28.194;2023-07-31T02:04:40;3;3;
55485;PMS5003;71262;-25.924;28.194;2023-07-31T02:07:05;2;2;
55485;PMS5003;71262;-25.924;28.194;2023-07-31T02:09:30;2;2;
55485;PMS5003;71262;-25.924;28.194;2023-07-31T02:11:55;4;3;
55485;PMS5003;71262;-25.924;28.194;2023-07-31T02:14:21;3;3;
55485;PMS5003;71262;-25.924;28.194;2023-07-31T02:16:46;3;3;
55485;PMS5003;71262;-25.924;28.194;2023-07-31T02:19:11;3;3;
55485;PMS5003;71262;-25.924;28.194;2023-07-31T02:21:36;1;1;
55485;PMS5003;71262;-25.924;28.194;2023-07-31T02:24:01;2;2;
55485;PMS5003;71262;-25.924;28.194;2023-07-31T02:26:27;2;2;
55485;PMS5003;71262;-25.924;28.194;2023-07-31T02:28:52;2;2;
55485;PMS5003;71262;-25.924;28.194;2023-07-31T02:31:17;2;2;
55485;PMS5003;71262;-25.924;28.194;2023-07-31T02:33:42;3;3;
55485;PMS5003;71262;-25.924;28.194;2023-07-31T02:36:07;2;2;
55485;PMS5003;71262;-25.924;28.194;2023-07-31T02:38:32;2;2;
55485;PMS5003;71262;-25.924;28.194;2023-07-31T02:40:58;3;3;
55485;PMS5003;71262;-25.924;28.194;2023-07-31T02:43:23;4;3;
55485;PMS5003;71262;-25.924;28.194;2023-07-31T02:45:51;2;2;
55485;PMS5003;71262;-25.924;28.194;2023-07-31T02:48:13;3;2;
55485;PMS5003;71262;-25.924;28.194;2023-07-31T02:50:39;2;2;
55485;PMS5003;71262;-25.924;28.194;2023-07-31T02:53:04;4;3;
55485;PMS5003;71262;-25.924;28.194;2023-07-31T02:55:29;1;1;
55485;PMS5003;71262;-25.924;28.194;2023-07-31T02:57:54;2;1;
55485;PMS5003;71262;-25.924;28.194;2023-07-31T03:00:19;4;3;
55485;PMS5003;71262;-25.924;28.194;2023-07-31T03:02:45;4;3;
55485;PMS5003;71262;-25.924;28.194;2023-07-31T03:05:10;4;3;
55485;PMS5003;71262;-25.924;28.194;2023-07-31T03:07:35;3;3;
55485;PMS5003;71262;-25.924;28.194;2023-07-31T03:10:00;4;4;
55485;PMS5003;71262;-25.924;28.194;2023-07-31T03:12:25;4;4;
55485;PMS5003;71262;-25.924;28.194;2023-07-31T03:14:50;5;4;
55485;PMS5003;71262;-25.924;28.194;2023-07-31T03:17:16;5;4;
55485;PMS5003;71262;-25.924;28.194;2023-07-31T03:19:41;3;3;
55485;PMS5003;71262;-25.924;28.194;2023-07-31T03:22:06;5;4;
55485;PMS5003;71262;-25.924;28.194;2023-07-31T03:24:31;6;4;
55485;PMS5003;71262;-25.924;28.194;2023-07-31T03:26:56;3;3;
55485;PMS5003;71262;-25.924;28.194;2023-07-31T03:29:22;6;5;
55485;PMS5003;71262;-25.924;28.194;2023-07-31T03:31:47;5;4;
55485;PMS5003;71262;-25.924;28.194;2023-07-31T03:34:12;3;3;
55485;PMS5003;71262;-25.924;28.194;2023-07-31T03:36:37;3;3;
55485;PMS5003;71262;-25.924;28.194;2023-07-31T03:39:02;13;10;
55485;PMS5003;71262;-25.924;28.194;2023-07-31T03:41:28;13;12;
55485;PMS5003;71262;-25.924;28.194;2023-07-31T03:43:53;1;1;
55485;PMS5003;71262;-25.924;28.194;2023-07-31T03:46:19;3;3;
55485;PMS5003;71262;-25.924;28.194;2023-07-31T03:48:44;4;4;
55485;PMS5003;71262;-25.924;28.194;2023-07-31T03:51:09;2;1;
55485;PMS5003;71262;-25.924;28.194;2023-07-31T03:53:34;1;1;
55485;PMS5003;71262;-25.924;28.194;2023-07-31T03:55:59;2;2;
55485;PMS5003;71262;-25.924;28.194;2023-07-31T03:58:25;2;2;
55485;PMS5003;71262;-25.924;28.194;2023-07-31T04:00:50;1;1;
55485;PMS5003;71262;-25.924;28.194;2023-07-31T04:03:15;2;1;
55485;PMS5003;71262;-25.924;28.194;2023-07-31T04:05:40;2;2;
55485;PMS5003;71262;-25.924;28.194;2023-07-31T04:08:05;2;2;
55485;PMS5003;71262;-25.924;28.194;2023-07-31T04:10:30;2;2;
55485;PMS5003;71262;-25.924;28.194;2023-07-31T04:12:56;2;2;
55485;PMS5003;71262;-25.924;28.194;2023-07-31T04:15:21;2;2;
55485;PMS5003;71262;-25.924;28.194;2023-07-31T04:17:46;1;1;
55485;PMS5003;71262;-25.924;28.194;2023-07-31T04:20:11;0;0;
55485;PMS5003;71262;-25.924;28.194;2023-07-31T04:22:36;3;2;
55485;PMS5003;71262;-25.924;28.194;2023-07-31T04:25:01;2;2;
55485;PMS5003;71262;-25.924;28.194;2023-07-31T04:27:27;1;1;
55485;PMS5003;71262;-25.924;28.194;2023-07-31T04:29:52;1;1;
55485;PMS5003;71262;-25.924;28.194;2023-07-31T04:32:17;6;6;
55485;PMS5003;71262;-25.924;28.194;2023-07-31T04:34:43;13;12;
55485;PMS5003;71262;-25.924;28.194;2023-07-31T04:37:09;11;9;
55485;PMS5003;71262;-25.924;28.194;2023-07-31T04:39:34;1;1;
55485;PMS5003;71262;-25.924;28.194;2023-07-31T04:41:59;2;1;
55485;PMS5003;71262;-25.924;28.194;2023-07-31T04:44:25;13;9;
55485;PMS5003;71262;-25.924;28.194;2023-07-31T04:46:50;3;2;
55485;PMS5003;71262;-25.924;28.194;2023-07-31T04:49:15;1;1;
55485;PMS5003;71262;-25.924;28.194;2023-07-31T04:51:40;5;5;
55485;PMS5003;71262;-25.924;28.194;2023-07-31T04:54:05;2;1;
55485;PMS5003;71262;-25.924;28.194;2023-07-31T04:56:31;1;1;
55485;PMS5003;71262;-25.924;28.194;2023-07-31T04:58:56;2;2;
55485;PMS5003;71262;-25.924;28.194;2023-07-31T05:01:22;2;2;
55485;PMS5003;71262;-25.924;28.194;2023-07-31T05:03:47;1;1;
55485;PMS5003;71262;-25.924;28.194;2023-07-31T05:06:12;1;1;
55485;PMS5003;71262;-25.924;28.194;2023-07-31T05:08:37;1;0;
55485;PMS5003;71262;-25.924;28.194;2023-07-31T05:11:02;1;1;
55485;PMS5003;71262;-25.924;28.194;2023-07-31T05:13:27;1;1;
55485;PMS5003;71262;-25.924;28.194;2023-07-31T05:15:53;1;1;
55485;PMS5003;71262;-25.924;28.194;2023-07-31T05:18:18;2;1;
55485;PMS5003;71262;-25.924;28.194;2023-07-31T05:20:44;23;16;
55485;PMS5003;71262;-25.924;28.194;2023-07-31T05:23:09;17;16;
55485;PMS5003;71262;-25.924;28.194;2023-07-31T05:25:35;7;7;
55485;PMS5003;71262;-25.924;28.194;2023-07-31T05:27:59;2;2;
55485;PMS5003;71262;-25.924;28.194;2023-07-31T05:30:25;1;1;
55485;PMS5003;71262;-25.924;28.194;2023-07-31T05:32:50;1;1;
55485;PMS5003;71262;-25.924;28.194;2023-07-31T05:35:15;1;0;
55485;PMS5003;71262;-25.924;28.194;2023-07-31T05:37:40;1;0;
55485;PMS5003;71262;-25.924;28.194;2023-07-31T05:40:06;0;0;
55485;PMS5003;71262;-25.924;28.194;2023-07-31T05:42:30;1;1;
55485;PMS5003;71262;-25.924;28.194;2023-07-31T05:44:55;0;0;
55485;PMS5003;71262;-25.924;28.194;2023-07-31T05:47:21;0;0;
55485;PMS5003;71262;-25.924;28.194;2023-07-31T05:49:46;0;0;
55485;PMS5003;71262;-25.924;28.194;2023-07-31T05:52:11;0;0;
55485;PMS5003;71262;-25.924;28.194;2023-07-31T05:54:36;1;0;
55485;PMS5003;71262;-25.924;28.194;2023-07-31T05:57:01;0;0;
55485;PMS5003;71262;-25.924;28.194;2023-07-31T05:59:26;1;1;
55485;PMS5003;71262;-25.924;28.194;2023-07-31T06:01:51;1;1;
55485;PMS5003;71262;-25.924;28.194;2023-07-31T06:04:16;0;0;
55485;PMS5003;71262;-25.924;28.194;2023-07-31T06:06:41;0;0;
55485;PMS5003;71262;-25.924;28.194;2023-07-31T06:09:06;1;1;
55485;PMS5003;71262;-25.924;28.194;2023-07-31T06:11:32;1;1;
55485;PMS5003;71262;-25.924;28.194;2023-07-31T06:13:57;3;3;
55485;PMS5003;71262;-25.924;28.194;2023-07-31T06:16:22;10;6;
55485;PMS5003;71262;-25.924;28.194;2023-07-31T06:18:47;4;3;
55485;PMS5003;71262;-25.924;28.194;2023-07-31T06:21:12;2;2;
55485;PMS5003;71262;-25.924;28.194;2023-07-31T06:23:37;2;2;
55485;PMS5003;71262;-25.924;28.194;2023-07-31T06:26:02;3;2;
55485;PMS5003;71262;-25.924;28.194;2023-07-31T06:28:27;2;1;
55485;PMS5003;71262;-25.924;28.194;2023-07-31T06:30:52;3;2;
55485;PMS5003;71262;-25.924;28.194;2023-07-31T06:33:17;2;1;
55485;PMS5003;71262;-25.924;28.194;2023-07-31T06:35:42;2;2;
55485;PMS5003;71262;-25.924;28.194;2023-07-31T06:38:08;2;1;
55485;PMS5003;71262;-25.924;28.194;2023-07-31T06:40:33;2;2;
55485;PMS5003;71262;-25.924;28.194;2023-07-31T06:42:58;1;0;
55485;PMS5003;71262;-25.924;28.194;2023-07-31T06:45:23;2;1;
55485;PMS5003;71262;-25.924;28.194;2023-07-31T06:47:48;2;1;
55485;PMS5003;71262;-25.924;28.194;2023-07-31T06:50:13;2;1;
55485;PMS5003;71262;-25.924;28.194;2023-07-31T06:52:38;2;1;
55485;PMS5003;71262;-25.924;28.194;2023-07-31T06:55:03;1;1;
55485;PMS5003;71262;-25.924;28.194;2023-07-31T06:57:28;0;0;
55485;PMS5003;71262;-25.924;28.194;2023-07-31T06:59:53;1;1;
55485;PMS5003;71262;-25.924;28.194;2023-07-31T07:02:18;2;1;
55485;PMS5003;71262;-25.924;28.194;2023-07-31T07:04:43;1;1;
55485;PMS5003;71262;-25.924;28.194;2023-07-31T07:07:08;0;0;
55485;PMS5003;71262;-25.924;28.194;2023-07-31T07:09:33;0;0;
55485;PMS5003;71262;-25.924;28.194;2023-07-31T07:11:58;1;1;
55485;PMS5003;71262;-25.924;28.194;2023-07-31T07:14:24;0;0;
55485;PMS5003;71262;-25.924;28.194;2023-07-31T07:16:50;2;1;
55485;PMS5003;71262;-25.924;28.194;2023-07-31T07:19:14;0;0;
55485;PMS5003;71262;-25.924;28.194;2023-07-31T07:21:39;1;1;
55485;PMS5003;71262;-25.924;28.194;2023-07-31T07:24:04;0;0;
55485;PMS5003;71262;-25.924;28.194;2023-07-31T07:26:29;0;0;
55485;PMS5003;71262;-25.924;28.194;2023-07-31T07:28:54;1;1;
55485;PMS5003;71262;-25.924;28.194;2023-07-31T07:31:19;3;3;
55485;PMS5003;71262;-25.924;28.194;2023-07-31T07:33:44;7;7;
55485;PMS5003;71262;-25.924;28.194;2023-07-31T07:36:09;8;7;
55485;PMS5003;71262;-25.924;28.194;2023-07-31T07:38:34;7;7;
55485;PMS5003;71262;-25.924;28.194;2023-07-31T07:40:59;9;9;
55485;PMS5003;71262;-25.924;28.194;2023-07-31T07:43:24;11;11;
55485;PMS5003;71262;-25.924;28.194;2023-07-31T07:45:49;11;11;
55485;PMS5003;71262;-25.924;28.194;2023-07-31T07:48:14;11;11;
55485;PMS5003;71262;-25.924;28.194;2023-07-31T07:50:40;10;10;
55485;PMS5003;71262;-25.924;28.194;2023-07-31T07:53:05;11;11;
55485;PMS5003;71262;-25.924;28.194;2023-07-31T07:55:30;10;10;
55485;PMS5003;71262;-25.924;28.194;2023-07-31T07:57:55;10;9;
55485;PMS5003;71262;-25.924;28.194;2023-07-31T08:00:20;7;7;
55485;PMS5003;71262;-25.924;28.194;2023-07-31T08:02:45;7;7;
55485;PMS5003;71262;-25.924;28.194;2023-07-31T08:05:10;7;7;
55485;PMS5003;71262;-25.924;28.194;2023-07-31T08:07:35;8;8;
55485;PMS5003;71262;-25.924;28.194;2023-07-31T08:10:00;8;8;
55485;PMS5003;71262;-25.924;28.194;2023-07-31T08:12:25;8;8;
55485;PMS5003;71262;-25.924;28.194;2023-07-31T08:14:50;8;8;
55485;PMS5003;71262;-25.924;28.194;2023-07-31T08:17:15;8;8;
55485;PMS5003;71262;-25.924;28.194;2023-07-31T08:19:40;8;8;
55485;PMS5003;71262;-25.924;28.194;2023-07-31T08:22:06;8;8;
55485;PMS5003;71262;-25.924;28.194;2023-07-31T08:24:31;10;9;
55485;PMS5003;71262;-25.924;28.194;2023-07-31T08:26:56;10;10;
55485;PMS5003;71262;-25.924;28.194;2023-07-31T08:29:21;10;10;
55485;PMS5003;71262;-25.924;28.194;2023-07-31T08:31:46;10;9;
55485;PMS5003;71262;-25.924;28.194;2023-07-31T08:34:11;6;6;
55485;PMS5003;71262;-25.924;28.194;2023-07-31T08:36:36;7;7;
55485;PMS5003;71262;-25.924;28.194;2023-07-31T08:39:01;5;5;
55485;PMS5003;71262;-25.924;28.194;2023-07-31T08:41:27;6;6;
55485;PMS5003;71262;-25.924;28.194;2023-07-31T08:43:51;5;5;
55485;PMS5003;71262;-25.924;28.194;2023-07-31T08:46:16;4;4;
55485;PMS5003;71262;-25.924;28.194;2023-07-31T08:48:42;3;3;
55485;PMS5003;71262;-25.924;28.194;2023-07-31T08:51:06;4;4;
55485;PMS5003;71262;-25.924;28.194;2023-07-31T08:53:31;5;5;
55485;PMS5003;71262;-25.924;28.194;2023-07-31T08:55:56;15;15;
55485;PMS5003;71262;-25.924;28.194;2023-07-31T08:58:22;31;31;
55485;PMS5003;71262;-25.924;28.194;2023-07-31T09:00:47;34;34;
55485;PMS5003;71262;-25.924;28.194;2023-07-31T09:03:13;30;30;
55485;PMS5003;71262;-25.924;28.194;2023-07-31T09:05:37;22;22;
55485;PMS5003;71262;-25.924;28.194;2023-07-31T09:08:03;18;18;
55485;PMS5003;71262;-25.924;28.194;2023-07-31T09:10:27;10;10;
55485;PMS5003;71262;-25.924;28.194;2023-07-31T09:12:52;3;3;
55485;PMS5003;71262;-25.924;28.194;2023-07-31T09:15:17;1;1;
55485;PMS5003;71262;-25.924;28.194;2023-07-31T09:17:43;2;2;
55485;PMS5003;71262;-25.924;28.194;2023-07-31T09:22:34;1;1;
55485;PMS5003;71262;-25.924;28.194;2023-07-31T09:24:58;1;1;
55485;PMS5003;71262;-25.924;28.194;2023-07-31T09:27:23;0;0;
55485;PMS5003;71262;-25.924;28.194;2023-07-31T09:29:58;1;1;
55485;PMS5003;71262;-25.924;28.194;2023-07-31T09:32:16;0;0;
55485;PMS5003;71262;-25.924;28.194;2023-07-31T09:34:38;0;0;
55485;PMS5003;71262;-25.924;28.194;2023-07-31T09:37:04;0;0;
55485;PMS5003;71262;-25.924;28.194;2023-07-31T09:39:29;1;0;
55485;PMS5003;71262;-25.924;28.194;2023-07-31T09:41:54;0;0;
55485;PMS5003;71262;-25.924;28.194;2023-07-31T09:44:18;0;0;
55485;PMS5003;71262;-25.924;28.194;2023-07-31T09:46:43;0;0;
55485;PMS5003;71262;-25.924;28.194;2023-07-31T09:49:09;0;0;
55485;PMS5003;71262;-25.924;28.194;2023-07-31T09:51:33;0;0;
55485;PMS5003;71262;-25.924;28.194;2023-07-31T09:53:58;0;0;
55485;PMS5003;71262;-25.924;28.194;2023-07-31T09:56:24;0;0;
55485;PMS5003;71262;-25.924;28.194;2023-07-31T09:58:49;0;0;
55485;PMS5003;71262;-25.924;28.194;2023-07-31T10:01:14;0;0;
55485;PMS5003;71262;-25.924;28.194;2023-07-31T10:03:39;0;0;
55485;PMS5003;71262;-25.924;28.194;2023-07-31T10:06:04;0;0;
55485;PMS5003;71262;-25.924;28.194;2023-07-31T10:08:30;0;0;
55485;PMS5003;71262;-25.924;28.194;2023-07-31T10:10:54;0;0;
55485;PMS5003;71262;-25.924;28.194;2023-07-31T10:13:19;0;0;
55485;PMS5003;71262;-25.924;28.194;2023-07-31T10:15:44;0;0;
55485;PMS5003;71262;-25.924;28.194;2023-07-31T10:18:09;0;0;
55485;PMS5003;71262;-25.924;28.194;2023-07-31T10:20:34;0;0;
55485;PMS5003;71262;-25.924;28.194;2023-07-31T10:22:59;0;0;
55485;PMS5003;71262;-25.924;28.194;2023-07-31T10:25:24;0;0;
55485;PMS5003;71262;-25.924;28.194;2023-07-31T10:27:49;0;0;
55485;PMS5003;71262;-25.924;28.194;2023-07-31T10:30:15;0;0;
55485;PMS5003;71262;-25.924;28.194;2023-07-31T10:32:40;0;0;
55485;PMS5003;71262;-25.924;28.194;2023-07-31T10:35:05;0;0;
55485;PMS5003;71262;-25.924;28.194;2023-07-31T10:37:35;1;0;
55485;PMS5003;71262;-25.924;28.194;2023-07-31T10:39:57;0;0;
55485;PMS5003;71262;-25.924;28.194;2023-07-31T10:42:20;1;0;
55485;PMS5003;71262;-25.924;28.194;2023-07-31T10:44:46;0;0;
55485;PMS5003;71262;-25.924;28.194;2023-07-31T10:47:10;0;0;
55485;PMS5003;71262;-25.924;28.194;2023-07-31T10:49:35;0;0;
55485;PMS5003;71262;-25.924;28.194;2023-07-31T10:52:03;0;0;
55485;PMS5003;71262;-25.924;28.194;2023-07-31T10:54:25;0;0;
55485;PMS5003;71262;-25.924;28.194;2023-07-31T10:56:50;0;0;
55485;PMS5003;71262;-25.924;28.194;2023-07-31T10:59:16;0;0;
55485;PMS5003;71262;-25.924;28.194;2023-07-31T11:04:10;0;0;
55485;PMS5003;71262;-25.924;28.194;2023-07-31T11:06:31;0;0;
55485;PMS5003;71262;-25.924;28.194;2023-07-31T11:08:56;0;0;
55485;PMS5003;71262;-25.924;28.194;2023-07-31T11:11:21;1;1;
55485;PMS5003;71262;-25.924;28.194;2023-07-31T11:13:47;1;0;
55485;PMS5003;71262;-25.924;28.194;2023-07-31T11:16:12;1;0;
55485;PMS5003;71262;-25.924;28.194;2023-07-31T11:18:38;2;1;
55485;PMS5003;71262;-25.924;28.194;2023-07-31T11:21:01;1;1;
55485;PMS5003;71262;-25.924;28.194;2023-07-31T11:23:26;1;1;
55485;PMS5003;71262;-25.924;28.194;2023-07-31T11:25:51;1;1;
55485;PMS5003;71262;-25.924;28.194;2023-07-31T11:28:17;1;1;
55485;PMS5003;71262;-25.924;28.194;2023-07-31T11:30:43;1;1;
55485;PMS5003;71262;-25.924;28.194;2023-07-31T11:33:08;2;2;
55485;PMS5003;71262;-25.924;28.194;2023-07-31T11:35:32;1;1;
55485;PMS5003;71262;-25.924;28.194;2023-07-31T11:37:57;1;1;
55485;PMS5003;71262;-25.924;28.194;2023-07-31T11:40:22;1;1;
55485;PMS5003;71262;-25.924;28.194;2023-07-31T11:42:47;0;0;
55485;PMS5003;71262;-25.924;28.194;2023-07-31T11:45:13;2;2;
55485;PMS5003;71262;-25.924;28.194;2023-07-31T11:47:38;2;1;
55485;PMS5003;71262;-25.924;28.194;2023-07-31T11:50:03;1;1;
55485;PMS5003;71262;-25.924;28.194;2023-07-31T11:52:28;0;0;
55485;PMS5003;71262;-25.924;28.194;2023-07-31T11:54:53;0;0;
55485;PMS5003;71262;-25.924;28.194;2023-07-31T11:57:18;0;0;
55485;PMS5003;71262;-25.924;28.194;2023-07-31T11:59:43;1;1;
55485;PMS5003;71262;-25.924;28.194;2023-07-31T12:02:08;1;1;
55485;PMS5003;71262;-25.924;28.194;2023-07-31T12:04:33;0;0;
55485;PMS5003;71262;-25.924;28.194;2023-07-31T12:07:00;0;0;
55485;PMS5003;71262;-25.924;28.194;2023-07-31T12:09:23;0;0;
55485;PMS5003;71262;-25.924;28.194;2023-07-31T12:11:49;0;0;
55485;PMS5003;71262;-25.924;28.194;2023-07-31T12:16:39;0;0;
55485;PMS5003;71262;-25.924;28.194;2023-07-31T12:19:04;0;0;
55485;PMS5003;71262;-25.924;28.194;2023-07-31T12:21:29;2;1;
55485;PMS5003;71262;-25.924;28.194;2023-07-31T12:23:54;1;1;
55485;PMS5003;71262;-25.924;28.194;2023-07-31T12:26:19;1;1;
55485;PMS5003;71262;-25.924;28.194;2023-07-31T12:28:45;0;0;
55485;PMS5003;71262;-25.924;28.194;2023-07-31T12:31:10;0;0;
55485;PMS5003;71262;-25.924;28.194;2023-07-31T12:33:36;0;0;
55485;PMS5003;71262;-25.924;28.194;2023-07-31T12:36:01;0;0;
55485;PMS5003;71262;-25.924;28.194;2023-07-31T12:38:25;0;0;
55485;PMS5003;71262;-25.924;28.194;2023-07-31T12:40:50;0;0;
55485;PMS5003;71262;-25.924;28.194;2023-07-31T12:43:15;1;0;
55485;PMS5003;71262;-25.924;28.194;2023-07-31T12:45:40;0;0;
55485;PMS5003;71262;-25.924;28.194;2023-07-31T12:48:06;0;0;
55485;PMS5003;71262;-25.924;28.194;2023-07-31T12:50:31;0;0;
55485;PMS5003;71262;-25.924;28.194;2023-07-31T12:52:56;1;1;
55485;PMS5003;71262;-25.924;28.194;2023-07-31T12:55:21;1;1;
55485;PMS5003;71262;-25.924;28.194;2023-07-31T12:57:46;0;0;
55485;PMS5003;71262;-25.924;28.194;2023-07-31T13:00:11;1;1;
55485;PMS5003;71262;-25.924;28.194;2023-07-31T13:02:36;0;0;
55485;PMS5003;71262;-25.924;28.194;2023-07-31T13:05:03;0;0;
55485;PMS5003;71262;-25.924;28.194;2023-07-31T13:07:26;1;1;
55485;PMS5003;71262;-25.924;28.194;2023-07-31T13:09:51;1;1;
55485;PMS5003;71262;-25.924;28.194;2023-07-31T13:12:17;1;1;
55485;PMS5003;71262;-25.924;28.194;2023-07-31T13:14:42;0;0;
55485;PMS5003;71262;-25.924;28.194;2023-07-31T13:17:07;1;1;
55485;PMS5003;71262;-25.924;28.194;2023-07-31T13:19:32;0;0;
55485;PMS5003;71262;-25.924;28.194;2023-07-31T13:21:57;0;0;
55485;PMS5003;71262;-25.924;28.194;2023-07-31T13:24:22;0;0;
55485;PMS5003;71262;-25.924;28.194;2023-07-31T13:26:47;1;1;
55485;PMS5003;71262;-25.924;28.194;2023-07-31T13:29:12;1;1;
55485;PMS5003;71262;-25.924;28.194;2023-07-31T13:31:37;2;1;
55485;PMS5003;71262;-25.924;28.194;2023-07-31T13:34:03;1;1;
55485;PMS5003;71262;-25.924;28.194;2023-07-31T13:36:28;1;1;
55485;PMS5003;71262;-25.924;28.194;2023-07-31T13:38:53;1;0;
55485;PMS5003;71262;-25.924;28.194;2023-07-31T13:41:18;2;1;
55485;PMS5003;71262;-25.924;28.194;2023-07-31T13:43:43;0;0;
55485;PMS5003;71262;-25.924;28.194;2023-07-31T13:46:08;0;0;
55485;PMS5003;71262;-25.924;28.194;2023-07-31T13:48:34;0;0;
55485;PMS5003;71262;-25.924;28.194;2023-07-31T13:50:59;1;1;
55485;PMS5003;71262;-25.924;28.194;2023-07-31T13:53:23;1;0;
55485;PMS5003;71262;-25.924;28.194;2023-07-31T13:55:49;2;2;
55485;PMS5003;71262;-25.924;28.194;2023-07-31T13:58:14;1;1;
55485;PMS5003;71262;-25.924;28.194;2023-07-31T14:00:39;2;2;
55485;PMS5003;71262;-25.924;28.194;2023-07-31T14:03:04;1;0;
55485;PMS5003;71262;-25.924;28.194;2023-07-31T14:05:29;0;0;
55485;PMS5003;71262;-25.924;28.194;2023-07-31T14:07:54;0;0;
55485;PMS5003;71262;-25.924;28.194;2023-07-31T14:10:19;0;0;
55485;PMS5003;71262;-25.924;28.194;2023-07-31T14:12:44;1;0;
55485;PMS5003;71262;-25.924;28.194;2023-07-31T14:15:10;1;1;
55485;PMS5003;71262;-25.924;28.194;2023-07-31T14:17:36;0;0;
55485;PMS5003;71262;-25.924;28.194;2023-07-31T14:20:00;0;0;
55485;PMS5003;71262;-25.924;28.194;2023-07-31T14:22:28;1;0;
55485;PMS5003;71262;-25.924;28.194;2023-07-31T14:24:50;0;0;
55485;PMS5003;71262;-25.924;28.194;2023-07-31T14:27:15;1;1;
55485;PMS5003;71262;-25.924;28.194;2023-07-31T14:29:40;0;0;
55485;PMS5003;71262;-25.924;28.194;2023-07-31T14:32:06;0;0;
55485;PMS5003;71262;-25.924;28.194;2023-07-31T14:34:30;0;0;
55485;PMS5003;71262;-25.924;28.194;2023-07-31T14:36:56;0;0;
55485;PMS5003;71262;-25.924;28.194;2023-07-31T14:39:21;0;0;
55485;PMS5003;71262;-25.924;28.194;2023-07-31T14:41:46;0;0;
55485;PMS5003;71262;-25.924;28.194;2023-07-31T14:44:11;0;0;
55485;PMS5003;71262;-25.924;28.194;2023-07-31T14:46:36;0;0;
55485;PMS5003;71262;-25.924;28.194;2023-07-31T14:49:01;0;0;
55485;PMS5003;71262;-25.924;28.194;2023-07-31T14:51:26;0;0;
55485;PMS5003;71262;-25.924;28.194;2023-07-31T14:53:52;0;0;
55485;PMS5003;71262;-25.924;28.194;2023-07-31T14:56:16;0;0;
55485;PMS5003;71262;-25.924;28.194;2023-07-31T14:58:42;0;0;
55485;PMS5003;71262;-25.924;28.194;2023-07-31T15:01:07;2;1;
55485;PMS5003;71262;-25.924;28.194;2023-07-31T15:03:32;1;1;
55485;PMS5003;71262;-25.924;28.194;2023-07-31T15:05:57;0;0;
55485;PMS5003;71262;-25.924;28.194;2023-07-31T15:08:22;1;1;
55485;PMS5003;71262;-25.924;28.194;2023-07-31T15:10:47;2;1;
55485;PMS5003;71262;-25.924;28.194;2023-07-31T15:13:12;0;0;
55485;PMS5003;71262;-25.924;28.194;2023-07-31T15:15:37;0;0;
55485;PMS5003;71262;-25.924;28.194;2023-07-31T15:18:03;1;1;
55485;PMS5003;71262;-25.924;28.194;2023-07-31T15:20:28;1;0;
55485;PMS5003;71262;-25.924;28.194;2023-07-31T15:22:53;0;0;
55485;PMS5003;71262;-25.924;28.194;2023-07-31T15:25:19;5;1;
55485;PMS5003;71262;-25.924;28.194;2023-07-31T15:27:44;0;0;
55485;PMS5003;71262;-25.924;28.194;2023-07-31T15:30:09;1;0;
55485;PMS5003;71262;-25.924;28.194;2023-07-31T15:32:34;0;0;
55485;PMS5003;71262;-25.924;28.194;2023-07-31T15:34:59;0;0;
55485;PMS5003;71262;-25.924;28.194;2023-07-31T15:37:24;1;0;
55485;PMS5003;71262;-25.924;28.194;2023-07-31T15:39:49;15;12;
55485;PMS5003;71262;-25.924;28.194;2023-07-31T15:42:14;1;1;
55485;PMS5003;71262;-25.924;28.194;2023-07-31T15:44:39;1;0;
55485;PMS5003;71262;-25.924;28.194;2023-07-31T15:47:05;1;1;
55485;PMS5003;71262;-25.924;28.194;2023-07-31T15:49:30;0;0;
55485;PMS5003;71262;-25.924;28.194;2023-07-31T15:51:55;1;1;
55485;PMS5003;71262;-25.924;28.194;2023-07-31T15:54:20;2;1;
55485;PMS5003;71262;-25.924;28.194;2023-07-31T15:56:45;2;2;
55485;PMS5003;71262;-25.924;28.194;2023-07-31T15:59:10;1;1;
55485;PMS5003;71262;-25.924;28.194;2023-07-31T16:01:36;1;1;
55485;PMS5003;71262;-25.924;28.194;2023-07-31T16:04:00;1;1;
55485;PMS5003;71262;-25.924;28.194;2023-07-31T16:06:26;1;1;
55485;PMS5003;71262;-25.924;28.194;2023-07-31T16:08:51;2;1;
55485;PMS5003;71262;-25.924;28.194;2023-07-31T16:11:16;22;16;